Marcola, OR

6:07 PM PDT on July 05, 2015 (GMT -0700)
Parsons Creek | | Change Station
CLOSE
Current Station
Personal Weather Station
Location: Springfield, OR
Elevation: 554 ft
Nearby Weather Stations

Elev 554 ft 44.17 °N, 122.88 °W | Updated 7 minutes ago

Partly Cloudy
Partly Cloudy
89.6 °F
Feels Like 88 °F
N
3.0
Wind Variable Wind from WSW
Gusts 3.0 mph

Today
High -- | Low -- °F
--% Chance of Precip.
Yesterday
High -- | Low -- °F
Precip. -- in
5:33 AM 8:57 PM
Waning Gibbous, 80% visible
Pressure 29.86 in
Visibility 10.0 miles
Clouds Few 10000 ft
Few 18000 ft
Mostly Cloudy 28000 ft
Heat Index 88 °F
Dew Point 56 °F
Humidity 32%
Rainfall 0.00 in
Snow Depth Not available.
UV 2 out of 12
Pollen 8.80 out of 12
Air Quality Not available.
Flu Activity Not available.
METAR KEUG 060054Z 25013KT 10SM FEW100 FEW180 BKN280 31/10 A2987 RMK AO2 SLP112 T03060100

More Conditions Fewer Conditions

Pressure 29.86 in
Visibility 10.0 miles
Clouds Few 10000 ft
Few 18000 ft
Mostly Cloudy 28000 ft
Heat Index 88 °F
Dew Point 56 °F
Humidity 32%
Rainfall 0.00 in
Snow Depth Not available.
UV 2 out of 12
Pollen 8.80 out of 12
Air Quality Not available.
Flu Activity Not available.
METAR KEUG 060054Z 25013KT 10SM FEW100 FEW180 BKN280 31/10 A2987 RMK AO2 SLP112 T03060100

More Conditions Fewer Conditions

10-Day Weather Forecast

×

Almanac

Astronomy

Jul. 05, 2015 Rise Set
Actual Time
Civil Twilight
Nautical Twilight
Astronomical Twilight
Moon
Length of Visible Light
Length of Day
Tomorrow will be .
, % of the Moon is Illuminated

Today's Extremes

State Highs State Lows

Community

WunderPhotos

Upload Photos

1,835,437 photos uploaded!

WunderBlogs® & News

Nearby

Air Quality

  Air Quality AQ Index Pollutant
Not available.

Snow Depth

Station Depth Elevation

Earthquake Activity

City Distance Mag. Time & Date
Minimum magnitude displayed is 2.5.

Coastal Water Temperatures

Place Temperature

Stations

Nearby Weather Stations

Station Location Temp. Windchill Dew Point Humidity Wind Precip. Elev Updated Type